PWSweather.com
Personal Weather Stations
Station Observations
J24K28P63
Vysocina, PocatkyCZ 39464

VysocinaPocatkyCZ 39464

Lat: 49.2594238, Lon: 15.2331769

Elevation: 2011

Station Type: Vantage Pro2+

http://meteo-jirkalina.com

High Low Average
Temperature 41.3°F5.2°C 33.8°F1.0°C 37.7°F3.2°C
Dew Point 40.8°F4.9°C 32.0°F0.0°C 37.5°F3.1°C
Winds 7.0 mph 11.3 kmh Calm Calm 1.0 mph S1.6 kmh S
Wind Gusts 12.0 mph19.3 kmh -- 1.0 mph1.6 kmh
Humidity 100% 93% 99%
Pressure 30.33 in1027.1 mb 30.10 in1019.3 mb -
Precipitation 0.01 in0.3 mm - -
Hour Temp Dew Point Humidity Winds Wind Gusts Pressure Precip Precip Rate Daily Precip Total
12:00 AM 36.3°F2.4°C 35.5°F1.9°C 97% Calm Calm -- 30.10 in1019.3 mb - 0.00 in0.0 mm 0.00 in0.0 mm
12:30 AM 35.9°F2.2°C 35.4°F1.9°C 98% Calm Calm -- 30.10 in1019.3 mb - 0.00 in0.0 mm 0.00 in0.0 mm
01:00 AM 35.9°F2.2°C 35.4°F1.9°C 98% 0.6 mph NNE1.0 kmh NNE 3.0 mph4.8 kmh 30.10 in1019.3 mb - 0.00 in0.0 mm 0.00 in0.0 mm
01:30 AM 35.9°F2.2°C 35.6°F2.0°C 99% Calm Calm -- 30.11 in1019.6 mb - 0.00 in0.0 mm 0.00 in0.0 mm
02:00 AM 35.9°F2.2°C 35.6°F2.0°C 99% Calm Calm -- 30.12 in1020.0 mb - 0.00 in0.0 mm 0.00 in0.0 mm
02:30 AM 35.8°F2.1°C 35.5°F1.9°C 99% Calm Calm 1.0 mph1.6 kmh 30.12 in1020.0 mb - 0.00 in0.0 mm 0.00 in0.0 mm
03:00 AM 35.8°F2.1°C 35.8°F2.1°C 100% Calm Calm -- 30.13 in1020.3 mb - 0.00 in0.0 mm 0.00 in0.0 mm
03:30 AM 35.8°F2.1°C 35.8°F2.1°C 100% Calm Calm -- 30.14 in1020.7 mb - 0.00 in0.0 mm 0.00 in0.0 mm
04:00 AM 35.8°F2.1°C 35.8°F2.1°C 100% Calm Calm -- 30.14 in1020.7 mb - 0.00 in0.0 mm 0.00 in0.0 mm
04:30 AM 35.8°F2.1°C 35.8°F2.1°C 100% Calm Calm -- 30.14 in1020.7 mb - 0.00 in0.0 mm 0.00 in0.0 mm
05:00 AM 35.8°F2.1°C 35.8°F2.1°C 100% Calm Calm -- 30.15 in1021.0 mb - 0.00 in0.0 mm 0.00 in0.0 mm
05:30 AM 35.8°F2.1°C 35.8°F2.1°C 100% Calm Calm -- 30.16 in1021.3 mb - 0.00 in0.0 mm 0.00 in0.0 mm
06:00 AM 35.6°F2.0°C 35.6°F2.0°C 100% Calm Calm -- 30.16 in1021.3 mb - 0.00 in0.0 mm 0.00 in0.0 mm
06:30 AM 35.6°F2.0°C 35.6°F2.0°C 100% Calm Calm -- 30.16 in1021.3 mb - 0.00 in0.0 mm 0.00 in0.0 mm
07:00 AM 35.5°F1.9°C 35.5°F1.9°C 100% Calm Calm -- 30.17 in1021.7 mb - 0.00 in0.0 mm 0.00 in0.0 mm
07:30 AM 35.5°F1.9°C 35.5°F1.9°C 100% Calm Calm -- 30.18 in1022.0 mb - 0.00 in0.0 mm 0.00 in0.0 mm
08:00 AM 35.3°F1.8°C 35.3°F1.8°C 100% Calm Calm -- 30.19 in1022.4 mb - 0.00 in0.0 mm 0.00 in0.0 mm
08:30 AM 35.5°F1.9°C 35.5°F1.9°C 100% 0.3 mph NNE0.5 kmh NNE 2.0 mph3.2 kmh 30.20 in1022.7 mb - 0.00 in0.0 mm 0.00 in0.0 mm
08:40 AM 37.5°F3.1°C 37.5°F3.1°C 100% 2.0 mph W3.2 kmh W 3.0 mph4.8 kmh 30.27 in1025.1 mb - 0.00 in0.0 mm 0.01 in0.3 mm
08:50 AM 37.5°F3.1°C 37.5°F3.1°C 100% 2.0 mph W3.2 kmh W 3.0 mph4.8 kmh 30.27 in1025.1 mb - 0.00 in0.0 mm 0.01 in0.3 mm
09:00 AM 37.7°F3.2°C 37.7°F3.2°C 100% Calm Calm 2.0 mph3.2 kmh 30.28 in1025.4 mb - 0.00 in0.0 mm 0.01 in0.3 mm
09:10 AM 37.7°F3.2°C 37.7°F3.2°C 100% 1.0 mph W1.6 kmh W 2.0 mph3.2 kmh 30.28 in1025.4 mb - 0.00 in0.0 mm 0.01 in0.3 mm
09:20 AM 38.0°F3.3°C 38.0°F3.3°C 100% 2.0 mph W3.2 kmh W 3.0 mph4.8 kmh 30.28 in1025.4 mb - 0.00 in0.0 mm 0.01 in0.3 mm
09:30 AM 37.9°F3.3°C 37.9°F3.3°C 100% Calm Calm -- 30.29 in1025.7 mb - 0.00 in0.0 mm 0.01 in0.3 mm
09:40 AM 38.0°F3.3°C 38.0°F3.3°C 100% Calm Calm 1.0 mph1.6 kmh 30.29 in1025.7 mb - 0.00 in0.0 mm 0.01 in0.3 mm
09:50 AM 38.0°F3.3°C 38.0°F3.3°C 100% Calm Calm 2.0 mph3.2 kmh 30.29 in1025.7 mb - 0.00 in0.0 mm 0.01 in0.3 mm
10:00 AM 38.1°F3.4°C 38.1°F3.4°C 100% Calm Calm 2.0 mph3.2 kmh 30.30 in1026.1 mb - 0.00 in0.0 mm 0.01 in0.3 mm
10:10 AM 38.3°F3.5°C 38.3°F3.5°C 100% Calm Calm -- 30.30 in1026.1 mb - 0.00 in0.0 mm 0.01 in0.3 mm
10:20 AM 38.5°F3.6°C 38.5°F3.6°C 100% Calm Calm -- 30.30 in1026.1 mb - 0.00 in0.0 mm 0.01 in0.3 mm
10:30 AM 38.7°F3.7°C 38.7°F3.7°C 100% 2.0 mph W3.2 kmh W 2.0 mph3.2 kmh 30.31 in1026.4 mb - 0.00 in0.0 mm 0.01 in0.3 mm
10:40 AM 38.8°F3.8°C 38.8°F3.8°C 100% 1.0 mph W1.6 kmh W 3.0 mph4.8 kmh 30.31 in1026.4 mb - 0.00 in0.0 mm 0.01 in0.3 mm
10:50 AM 38.9°F3.8°C 38.9°F3.8°C 100% 2.0 mph W3.2 kmh W 3.0 mph4.8 kmh 30.31 in1026.4 mb - 0.00 in0.0 mm 0.01 in0.3 mm
11:00 AM 39.2°F4.0°C 39.2°F4.0°C 100% Calm Calm 2.0 mph3.2 kmh 30.31 in1026.4 mb - 0.00 in0.0 mm 0.01 in0.3 mm
11:10 AM 39.2°F4.0°C 39.2°F4.0°C 100% Calm Calm -- 30.30 in1026.1 mb - 0.00 in0.0 mm 0.01 in0.3 mm
11:20 AM 39.2°F4.0°C 39.2°F4.0°C 100% Calm Calm 1.0 mph1.6 kmh 30.30 in1026.1 mb - 0.00 in0.0 mm 0.01 in0.3 mm
11:30 AM 39.4°F4.1°C 39.4°F4.1°C 100% Calm Calm 1.0 mph1.6 kmh 30.30 in1026.1 mb - 0.00 in0.0 mm 0.01 in0.3 mm
11:40 AM 39.8°F4.3°C 39.8°F4.3°C 100% 1.0 mph W1.6 kmh W 2.0 mph3.2 kmh 30.30 in1026.1 mb - 0.00 in0.0 mm 0.01 in0.3 mm
11:50 AM 39.7°F4.3°C 39.7°F4.3°C 100% 1.0 mph W1.6 kmh W 2.0 mph3.2 kmh 30.30 in1026.1 mb - 0.00 in0.0 mm 0.01 in0.3 mm
12:00 PM 40.0°F4.4°C 39.7°F4.3°C 99% 1.0 mph W1.6 kmh W 2.0 mph3.2 kmh 30.30 in1026.1 mb - 0.00 in0.0 mm 0.01 in0.3 mm
12:10 PM 40.0°F4.4°C 39.7°F4.3°C 99% Calm Calm 1.0 mph1.6 kmh 30.30 in1026.1 mb - 0.00 in0.0 mm 0.01 in0.3 mm
12:20 PM 40.4°F4.7°C 40.1°F4.5°C 99% Calm Calm 1.0 mph1.6 kmh 30.30 in1026.1 mb - 0.00 in0.0 mm 0.01 in0.3 mm
12:30 PM 40.4°F4.7°C 40.1°F4.5°C 99% Calm Calm -- 30.30 in1026.1 mb - 0.00 in0.0 mm 0.01 in0.3 mm
12:40 PM 40.6°F4.8°C 40.3°F4.6°C 99% Calm Calm 2.0 mph3.2 kmh 30.30 in1026.1 mb - 0.00 in0.0 mm 0.01 in0.3 mm
12:50 PM 40.8°F4.9°C 40.5°F4.7°C 99% 1.0 mph W1.6 kmh W 2.0 mph3.2 kmh 30.30 in1026.1 mb - 0.00 in0.0 mm 0.01 in0.3 mm
01:00 PM 41.1°F5.1°C 40.8°F4.9°C 99% 1.0 mph W1.6 kmh W 2.0 mph3.2 kmh 30.30 in1026.1 mb - 0.00 in0.0 mm 0.01 in0.3 mm
01:10 PM 41.1°F5.1°C 40.8°F4.9°C 99% 1.0 mph W1.6 kmh W 2.0 mph3.2 kmh 30.30 in1026.1 mb - 0.00 in0.0 mm 0.01 in0.3 mm
01:20 PM 41.2°F5.1°C 40.7°F4.8°C 98% Calm Calm 2.0 mph3.2 kmh 30.30 in1026.1 mb - 0.00 in0.0 mm 0.01 in0.3 mm
01:30 PM 41.3°F5.2°C 40.8°F4.9°C 98% Calm Calm -- 30.30 in1026.1 mb - 0.00 in0.0 mm 0.01 in0.3 mm
01:40 PM 41.3°F5.2°C 40.8°F4.9°C 98% Calm Calm -- 30.30 in1026.1 mb - 0.00 in0.0 mm 0.01 in0.3 mm
01:50 PM 41.2°F5.1°C 40.7°F4.8°C 98% Calm Calm 1.0 mph1.6 kmh 30.30 in1026.1 mb - 0.00 in0.0 mm 0.01 in0.3 mm
02:00 PM 41.3°F5.2°C 40.5°F4.7°C 97% Calm Calm -- 30.30 in1026.1 mb - 0.00 in0.0 mm 0.01 in0.3 mm
02:10 PM 41.3°F5.2°C 40.5°F4.7°C 97% Calm Calm -- 30.31 in1026.4 mb - 0.00 in0.0 mm 0.01 in0.3 mm
02:20 PM 41.2°F5.1°C 40.4°F4.7°C 97% Calm Calm -- 30.31 in1026.4 mb - 0.00 in0.0 mm 0.01 in0.3 mm
02:30 PM 41.2°F5.1°C 40.4°F4.7°C 97% Calm Calm -- 30.31 in1026.4 mb - 0.00 in0.0 mm 0.01 in0.3 mm
02:40 PM 41.2°F5.1°C 40.4°F4.7°C 97% Calm Calm -- 30.32 in1026.8 mb - 0.00 in0.0 mm 0.01 in0.3 mm
02:50 PM 41.2°F5.1°C 40.4°F4.7°C 97% Calm Calm -- 30.32 in1026.8 mb - 0.00 in0.0 mm 0.01 in0.3 mm
03:00 PM 41.3°F5.2°C 40.2°F4.6°C 96% Calm Calm -- 30.32 in1026.8 mb - 0.00 in0.0 mm 0.01 in0.3 mm
03:10 PM 41.3°F5.2°C 40.2°F4.6°C 96% Calm Calm -- 30.32 in1026.8 mb - 0.00 in0.0 mm 0.01 in0.3 mm
03:20 PM 41.3°F5.2°C 40.2°F4.6°C 96% Calm Calm -- 30.33 in1027.1 mb - 0.00 in0.0 mm 0.01 in0.3 mm
03:30 PM 41.1°F5.1°C 40.0°F4.4°C 96% Calm Calm -- 30.33 in1027.1 mb - 0.00 in0.0 mm 0.01 in0.3 mm
03:40 PM 41.1°F5.1°C 40.0°F4.4°C 96% Calm Calm -- 30.33 in1027.1 mb - 0.00 in0.0 mm 0.01 in0.3 mm
03:50 PM 41.1°F5.1°C 40.0°F4.4°C 96% Calm Calm -- 30.33 in1027.1 mb - 0.00 in0.0 mm 0.01 in0.3 mm
04:00 PM 36.5°F2.5°C 36.0°F2.2°C 98% Calm Calm -- 30.26 in1024.7 mb - 0.00 in0.0 mm 0.00 in0.0 mm
04:30 PM 36.2°F2.3°C 35.7°F2.1°C 98% Calm Calm 1.0 mph1.6 kmh 30.27 in1025.1 mb - 0.00 in0.0 mm 0.00 in0.0 mm
05:00 PM 35.9°F2.2°C 35.6°F2.0°C 99% 0.4 mph NE0.6 kmh NE -- 30.28 in1025.4 mb - 0.00 in0.0 mm 0.00 in0.0 mm
05:30 PM 35.6°F2.0°C 35.3°F1.8°C 99% 1.7 mph NNE2.7 kmh NNE 3.0 mph4.8 kmh 30.28 in1025.4 mb - 0.00 in0.0 mm 0.00 in0.0 mm
06:00 PM 35.5°F1.9°C 35.5°F1.9°C 100% 0.6 mph NNE1.0 kmh NNE -- 30.28 in1025.4 mb - 0.00 in0.0 mm 0.00 in0.0 mm
06:30 PM 35.5°F1.9°C 35.5°F1.9°C 100% Calm Calm -- 30.28 in1025.4 mb - 0.00 in0.0 mm 0.00 in0.0 mm
07:00 PM 35.5°F1.9°C 35.5°F1.9°C 100% Calm Calm -- 30.29 in1025.7 mb - 0.00 in0.0 mm 0.00 in0.0 mm
07:30 PM 35.5°F1.9°C 35.5°F1.9°C 100% 1.3 mph NNE2.1 kmh NNE 4.0 mph6.4 kmh 30.29 in1025.7 mb - 0.00 in0.0 mm 0.00 in0.0 mm
08:00 PM 35.5°F1.9°C 35.5°F1.9°C 100% Calm Calm -- 30.30 in1026.1 mb - 0.00 in0.0 mm 0.00 in0.0 mm
08:30 PM 35.5°F1.9°C 35.5°F1.9°C 100% Calm Calm -- 30.30 in1026.1 mb - 0.00 in0.0 mm 0.00 in0.0 mm
09:00 PM 35.5°F1.9°C 35.5°F1.9°C 100% Calm Calm -- 30.31 in1026.4 mb - 0.00 in0.0 mm 0.00 in0.0 mm
09:30 PM 35.5°F1.9°C 35.5°F1.9°C 100% 1.7 mph NE2.7 kmh NE 4.0 mph6.4 kmh 30.32 in1026.8 mb - 0.00 in0.0 mm 0.00 in0.0 mm
10:00 PM 34.7°F1.5°C 34.4°F1.3°C 99% 1.1 mph NE1.8 kmh NE 2.0 mph3.2 kmh 30.32 in1026.8 mb - 0.00 in0.0 mm 0.00 in0.0 mm
10:30 PM 34.4°F1.3°C 33.9°F1.1°C 98% 1.7 mph NE2.7 kmh NE 3.0 mph4.8 kmh 30.32 in1026.8 mb - 0.00 in0.0 mm 0.00 in0.0 mm
11:00 PM 34.1°F1.2°C 32.8°F0.4°C 95% 3.8 mph NE6.1 kmh NE 4.0 mph6.4 kmh 30.33 in1027.1 mb - 0.00 in0.0 mm 0.00 in0.0 mm
11:30 PM 33.8°F1.0°C 32.0°F0.0°C 93% 7.0 mph ENE11.3 kmh ENE 12.0 mph19.3 kmh 30.32 in1026.8 mb - 0.00 in0.0 mm 0.00 in0.0 mm